Time;durP1;ratioP1;P1;durP2;ratioP2;P2;SDS_P1;SDS_P2;PMS_P1;PMS_P2;Temp;Humidity;BMP_temperature;BMP_pressure;BME280_temperature;BME280_humidity;BME280_pressure;Samples;Min_cycle;Max_cycle;Signal;HPM_P1;HPM_P2
2022/12/10 05:09:32;;;;;;;;;;;;;;;4.59;55.76;99832.50;4844278;24;8897;-72
2022/12/10 05:11:57;;;;;;;;;;;;;;;4.61;55.45;99844.41;4795897;29;9672;-72
2022/12/10 05:14:23;;;;;;;;;;;;;;;4.58;56.18;99838.38;4785252;29;7179;-72
2022/12/10 05:16:51;;;;;;;;;;;;;;;4.58;55.65;99838.38;4791698;29;9054;-73
2022/12/10 05:19:19;;;;;;;;;;;;;;;4.58;56.51;99838.38;4781138;29;7208;-73
2022/12/10 05:24:29;;;;;;;;;;;;;;;4.57;56.60;99841.69;4778315;29;9982;-72
2022/12/10 05:26:57;;;;;;;;;;;;;;;4.58;56.18;99840.00;4802541;29;8744;-73
2022/12/10 05:29:22;;;;;;;;;;;;;;;4.58;55.52;99837.47;4803820;29;6841;-72
2022/12/10 05:31:48;;;;;;;;;;;;;;;4.58;55.59;99840.00;4786268;29;9628;-72
2022/12/10 05:34:14;;;;;;;;;;;;;;;4.59;56.10;99832.50;4767439;29;7014;-73
2022/12/10 05:36:40;;;;;;;;;;;;;;;4.62;55.72;99830.94;4786715;29;7944;-73
2022/12/10 05:39:06;;;;;;;;;;;;;;;4.62;55.46;99831.81;4792150;29;8789;-73
2022/12/10 05:41:37;;;;;;;;;;;;;;;4.63;55.31;99835.22;4801070;29;6778;-72
2022/12/10 05:44:04;;;;;;;;;;;;;;;4.59;55.31;99824.03;4804717;29;6805;-73
2022/12/10 05:46:32;;;;;;;;;;;;;;;4.54;56.03;99827.91;4806433;29;6801;-73
2022/12/10 05:49:01;;;;;;;;;;;;;;;4.50;55.78;99836.13;4792797;29;7231;-73
2022/12/10 05:51:30;;;;;;;;;;;;;;;4.48;55.68;99830.97;4782164;29;6801;-73
2022/12/10 05:53:58;;;;;;;;;;;;;;;4.45;55.88;99834.16;4801180;29;6797;-73
2022/12/10 05:56:25;;;;;;;;;;;;;;;4.45;55.56;99839.25;4782581;29;7241;-73
2022/12/10 05:58:56;;;;;;;;;;;;;;;4.46;55.28;99845.22;4788155;29;6869;-73
2022/12/10 06:01:26;;;;;;;;;;;;;;;4.48;55.38;99850.38;4785784;29;6819;-73
2022/12/10 06:03:52;;;;;;;;;;;;;;;4.50;55.53;99846.28;4803773;29;6801;-73
2022/12/10 06:06:23;;;;;;;;;;;;;;;4.52;55.33;99850.66;4787475;29;7755;-72
2022/12/10 06:08:50;;;;;;;;;;;;;;;4.54;55.89;99853.31;4785702;29;6805;-73
2022/12/10 06:11:15;;;;;;;;;;;;;;;4.57;55.61;99850.94;4776830;29;6813;-72
2022/12/10 06:13:41;;;;;;;;;;;;;;;4.59;55.35;99857.88;4779730;29;6785;-73
2022/12/10 06:16:11;;;;;;;;;;;;;;;4.62;56.07;99863.94;4780213;29;6850;-73
2022/12/10 06:18:37;;;;;;;;;;;;;;;4.61;55.52;99854.56;4769909;29;6986;-73
2022/12/10 06:21:10;;;;;;;;;;;;;;;4.61;55.65;99859.63;4783875;29;6805;-73
2022/12/10 06:23:38;;;;;;;;;;;;;;;4.61;55.34;99868.16;4784557;29;7004;-73
2022/12/10 06:26:07;;;;;;;;;;;;;;;4.61;56.27;99863.06;4759437;29;6996;-72
2022/12/10 06:28:33;;;;;;;;;;;;;;;4.66;55.72;99865.91;4782616;29;6979;-73
2022/12/10 06:30:59;;;;;;;;;;;;;;;4.68;55.86;99872.84;4792225;29;10684;-73
2022/12/10 06:33:26;;;;;;;;;;;;;;;4.70;55.63;99860.22;4773755;29;6865;-73
2022/12/10 06:35:52;;;;;;;;;;;;;;;4.74;56.02;99874.88;4790699;29;6888;-73
2022/12/10 06:38:17;;;;;;;;;;;;;;;4.77;54.94;99872.53;4794293;29;6773;-73
2022/12/10 06:40:44;;;;;;;;;;;;;;;4.77;55.09;99872.53;4788395;29;6954;-73
2022/12/10 06:43:09;;;;;;;;;;;;;;;4.77;55.16;99876.72;4790638;29;6801;-73
2022/12/10 06:45:43;;;;;;;;;;;;;;;4.77;55.81;99872.53;4761784;29;8496;-73
2022/12/10 06:48:09;;;;;;;;;;;;;;;4.77;55.08;99869.97;4769033;29;6801;-73
2022/12/10 06:50:35;;;;;;;;;;;;;;;4.76;55.43;99870.78;4777656;29;7046;-72
2022/12/10 06:53:02;;;;;;;;;;;;;;;4.77;55.02;99876.72;4777442;29;6845;-72
2022/12/10 06:55:28;;;;;;;;;;;;;;;4.76;55.12;99877.50;4778551;29;6806;-72
2022/12/10 06:57:54;;;;;;;;;;;;;;;4.73;55.51;99873.09;4784673;29;7172;-72
2022/12/10 07:00:21;;;;;;;;;;;;;;;4.72;55.27;99889.13;4773127;29;6978;-71
2022/12/10 07:02:47;;;;;;;;;;;;;;;4.71;55.42;99887.38;4756500;29;9632;-71
2022/12/10 07:05:13;;;;;;;;;;;;;;;4.70;55.53;99898.31;4770498;29;6785;-71
2022/12/10 07:07:39;;;;;;;;;;;;;;;4.70;54.77;99900.84;4776409;29;6793;-72
2022/12/10 07:10:05;;;;;;;;;;;;;;;4.68;54.79;99903.31;4753564;29;6957;-72
2022/12/10 07:12:31;;;;;;;;;;;;;;;4.66;54.63;99914.13;4787730;29;6848;-72
2022/12/10 07:14:56;;;;;;;;;;;;;;;4.65;55.57;99907.31;4756732;29;6941;-72
2022/12/10 07:17:22;;;;;;;;;;;;;;;4.63;55.22;99908.84;4788382;29;6837;-72
2022/12/10 07:19:48;;;;;;;;;;;;;;;4.62;54.73;99907.97;4772610;29;6789;-72
2022/12/10 07:22:13;;;;;;;;;;;;;;;4.62;55.47;99907.97;4788458;29;6849;-72
2022/12/10 07:24:39;;;;;;;;;;;;;;;4.63;54.57;99913.91;4789659;29;6789;-72
2022/12/10 07:27:06;;;;;;;;;;;;;;;4.62;54.60;99902.00;4780942;29;11426;-72
2022/12/10 07:29:32;;;;;;;;;;;;;;;4.63;54.86;99901.22;4787817;29;6797;-72
2022/12/10 07:31:57;;;;;;;;;;;;;;;4.63;54.80;99911.38;4787354;29;6803;-72
2022/12/10 07:34:23;;;;;;;;;;;;;;;4.67;54.73;99908.28;4788021;29;7909;-72
2022/12/10 07:36:48;;;;;;;;;;;;;;;4.68;55.06;99918.53;4785221;29;7108;-72
2022/12/10 07:39:17;;;;;;;;;;;;;;;4.67;55.20;99921.81;4754411;29;7257;-72
2022/12/10 07:41:53;;;;;;;;;;;;;;;4.64;55.07;99920.78;4769983;29;6793;-72
2022/12/10 07:44:23;;;;;;;;;;;;;;;4.58;55.71;99916.16;4756848;29;8881;-72
2022/12/10 07:46:51;;;;;;;;;;;;;;;4.54;55.08;99919.28;4772943;29;6987;-72
2022/12/10 07:49:17;;;;;;;;;;;;;;;4.52;55.73;99916.66;4769038;29;6881;-72
2022/12/10 07:51:50;;;;;;;;;;;;;;;4.54;55.06;99920.19;4771861;29;6785;-72
2022/12/10 07:54:17;;;;;;;;;;;;;;;4.52;55.59;99924.25;4770640;29;6874;-72
2022/12/10 07:56:43;;;;;;;;;;;;;;;4.49;54.71;99923.19;4770666;29;6866;-72
2022/12/10 07:59:09;;;;;;;;;;;;;;;4.44;55.03;99927.97;4750246;29;7238;-72
2022/12/10 08:01:35;;;;;;;;;;;;;;;4.42;55.45;99919.38;4769626;29;6841;-72
2022/12/10 08:04:00;;;;;;;;;;;;;;;4.41;55.03;99923.59;4768952;29;6789;-72
2022/12/10 08:06:28;;;;;;;;;;;;;;;4.39;54.97;99917.50;4767182;29;7684;-72
2022/12/10 08:08:57;;;;;;;;;;;;;;;4.42;55.79;99922.81;4766389;29;8520;-72
2022/12/10 08:11:23;;;;;;;;;;;;;;;4.44;55.23;99923.78;4752799;29;7271;-72
2022/12/10 08:13:49;;;;;;;;;;;;;;;4.44;55.15;99920.34;4749794;29;7199;-72
2022/12/10 08:16:19;;;;;;;;;;;;;;;4.45;55.17;99924.66;4767426;29;7502;-72
2022/12/10 08:18:46;;;;;;;;;;;;;;;4.48;54.86;99929.94;4764909;29;6991;-72
2022/12/10 08:21:22;;;;;;;;;;;;;;;4.47;55.36;99933.25;4772533;29;6813;-72
2022/12/10 08:23:48;;;;;;;;;;;;;;;4.44;55.82;99931.38;4771099;29;6940;-72
2022/12/10 08:26:21;;;;;;;;;;;;;;;4.44;54.78;99944.06;4771601;29;6873;-72
2022/12/10 08:28:48;;;;;;;;;;;;;;;4.49;55.66;99946.91;4771907;29;6821;-72
2022/12/10 08:31:16;;;;;;;;;;;;;;;4.59;55.77;99950.94;4766072;29;8514;-72
2022/12/10 08:33:42;;;;;;;;;;;;;;;4.66;55.26;99957.28;4769961;29;6881;-72
2022/12/10 08:36:13;;;;;;;;;;;;;;;4.64;54.99;99967.34;4771580;29;6798;-72
2022/12/10 08:38:40;;;;;;;;;;;;;;;4.58;54.62;99962.75;4770876;29;7339;-72
2022/12/10 08:41:16;;;;;;;;;;;;;;;4.52;54.78;99962.34;4770411;29;6790;-72
2022/12/10 08:43:43;;;;;;;;;;;;;;;4.48;54.78;99962.94;4786689;29;6832;-72
2022/12/10 08:46:10;;;;;;;;;;;;;;;4.46;55.26;99969.56;4771769;29;6794;-72
2022/12/10 08:48:37;;;;;;;;;;;;;;;4.42;54.79;99973.56;4785251;29;7879;-72
2022/12/10 08:51:04;;;;;;;;;;;;;;;4.41;54.73;99970.91;4786172;29;6797;-72
2022/12/10 08:53:30;;;;;;;;;;;;;;;4.43;55.09;99987.09;4770082;29;7052;-72
2022/12/10 08:55:56;;;;;;;;;;;;;;;4.43;54.51;99987.09;4770331;29;6782;-72
2022/12/10 08:58:22;;;;;;;;;;;;;;;4.45;55.11;99983.91;4755566;29;6961;-72
2022/12/10 09:00:49;;;;;;;;;;;;;;;4.48;55.28;99983.22;4785597;29;7064;-72
2022/12/10 09:03:15;;;;;;;;;;;;;;;4.50;54.83;99989.28;4754486;29;8877;-72
2022/12/10 09:05:41;;;;;;;;;;;;;;;4.52;55.72;99990.25;4768246;29;6833;-72
2022/12/10 09:08:07;;;;;;;;;;;;;;;4.53;54.86;99993.69;4782541;29;9994;-72
2022/12/10 09:10:32;;;;;;;;;;;;;;;4.53;55.51;99999.63;4782985;29;6813;-72
2022/12/10 09:12:58;;;;;;;;;;;;;;;4.56;55.63;99999.84;4784209;29;6777;-72
2022/12/10 09:15:24;;;;;;;;;;;;;;;4.65;54.79;99998.69;4769466;29;7931;-72
2022/12/10 09:17:49;;;;;;;;;;;;;;;4.73;55.78;99993.31;4753955;29;7023;-72
2022/12/10 09:20:15;;;;;;;;;;;;;;;4.83;54.94;99994.81;4753520;29;8353;-72
2022/12/10 09:22:41;;;;;;;;;;;;;;;4.93;55.38;100003.03;4758663;29;8421;-72
2022/12/10 09:25:09;;;;;;;;;;;;;;;5.00;55.15;100007.69;4768374;29;6845;-72
2022/12/10 09:27:36;;;;;;;;;;;;;;;5.01;54.35;100004.38;4753582;29;7896;-72
2022/12/10 09:30:04;;;;;;;;;;;;;;;5.04;54.51;100002.03;4768254;29;6805;-72
2022/12/10 09:32:30;;;;;;;;;;;;;;;5.09;54.50;100004.88;4784337;29;9846;-72
2022/12/10 09:34:55;;;;;;;;;;;;;;;5.08;54.46;100003.13;4799896;29;6769;-72
2022/12/10 09:37:21;;;;;;;;;;;;;;;5.10;55.11;99999.00;4801752;29;6872;-72
2022/12/10 09:39:47;;;;;;;;;;;;;;;5.13;55.04;100009.34;4801697;29;7167;-72
2022/12/10 09:42:54;;;;;;;;;;;;;;;5.16;54.74;100011.22;4789049;29;6773;-72
2022/12/10 09:45:30;;;;;;;;;;;;;;;5.17;54.40;100012.97;4791251;29;7798;-72
2022/12/10 09:48:32;;;;;;;;;;;;;;;5.18;54.42;100020.72;4800215;29;7139;-72
2022/12/10 09:51:18;;;;;;;;;;;;;;;5.17;54.35;100012.97;4789166;29;6876;-72
2022/12/10 09:53:48;;;;;;;;;;;;;;;5.20;54.29;100016.59;4791306;29;7170;-72
2022/12/10 09:56:25;;;;;;;;;;;;;;;5.25;54.27;100019.44;4802410;29;7282;-72
2022/12/10 09:58:51;;;;;;;;;;;;;;;5.27;54.83;100018.75;4791196;29;6790;-72
2022/12/10 10:01:25;;;;;;;;;;;;;;;5.30;54.79;100015.50;4798963;29;7013;-72
2022/12/10 10:03:51;;;;;;;;;;;;;;;5.37;54.71;100010.03;4787921;29;6813;-72
2022/12/10 10:06:16;;;;;;;;;;;;;;;5.46;54.77;100008.84;4780315;29;6930;-72
2022/12/10 10:08:48;;;;;;;;;;;;;;;5.55;54.69;99995.06;4783524;29;6850;-72
2022/12/10 10:11:21;;;;;;;;;;;;;;;5.68;55.01;100004.28;4794844;29;6813;-72
2022/12/10 10:13:55;;;;;;;;;;;;;;;5.80;54.27;99990.59;4783826;29;6801;-72
2022/12/10 10:16:32;;;;;;;;;;;;;;;5.92;54.48;99993.88;4797860;29;6840;-72
2022/12/10 10:19:01;;;;;;;;;;;;;;;6.02;54.65;99991.91;4782957;29;6861;-72
2022/12/10 10:21:46;;;;;;;;;;;;;;;6.13;54.12;99998.50;4783525;29;6966;-72
2022/12/10 10:24:20;;;;;;;;;;;;;;;6.19;54.07;100001.41;4780297;29;6881;-72
2022/12/10 10:26:47;;;;;;;;;;;;;;;6.26;53.88;100000.13;4786801;29;6805;-72
2022/12/10 10:29:19;;;;;;;;;;;;;;;6.27;53.66;100003.53;4785654;29;6829;-72
2022/12/10 10:31:44;;;;;;;;;;;;;;;6.27;53.63;99996.78;4785286;29;6869;-72
2022/12/10 10:34:17;;;;;;;;;;;;;;;6.24;53.47;99999.16;4782766;29;7922;-72
2022/12/10 10:36:44;;;;;;;;;;;;;;;6.23;53.21;99993.16;4780076;29;7288;-72
2022/12/10 10:39:19;;;;;;;;;;;;;;;6.24;53.54;99994.06;4784844;29;6937;-72
2022/12/10 10:41:52;;;;;;;;;;;;;;;6.28;53.58;99992.53;4799931;29;7115;-72
2022/12/10 10:44:24;;;;;;;;;;;;;;;6.31;53.41;99987.66;4785033;29;6805;-72
2022/12/10 10:46:54;;;;;;;;;;;;;;;6.33;53.18;99986.06;4782041;29;7264;-72
2022/12/10 10:49:29;;;;;;;;;;;;;;;6.36;53.13;99987.13;4792640;29;6797;-72
2022/12/10 10:52:05;;;;;;;;;;;;;;;6.39;53.07;99984.75;4784620;29;6801;-72
2022/12/10 10:54:36;;;;;;;;;;;;;;;6.44;53.71;99992.66;4784987;29;6805;-72
2022/12/10 10:57:33;;;;;;;;;;;;;;;6.48;53.42;99984.44;4801804;29;7266;-72
2022/12/10 11:00:24;;;;;;;;;;;;;;;6.53;52.97;99982.16;4783717;29;9868;-72
2022/12/10 11:02:50;;;;;;;;;;;;;;;6.56;53.33;99982.31;4802593;29;11272;-72
2022/12/10 11:05:23;;;;;;;;;;;;;;;6.61;52.79;99990.22;4787231;29;6991;-71
2022/12/10 11:07:59;;;;;;;;;;;;;;;6.64;52.82;99990.38;4797729;29;6797;-72
2022/12/10 11:10:26;;;;;;;;;;;;;;;6.61;52.45;99990.22;4779394;29;6801;-72
2022/12/10 11:13:06;;;;;;;;;;;;;;;6.53;52.66;99995.75;4797667;29;7149;-72
2022/12/10 11:15:42;;;;;;;;;;;;;;;6.47;52.42;99999.59;4798976;29;6825;-72
2022/12/10 11:18:27;;;;;;;;;;;;;;;6.40;52.57;100000.91;4786868;29;7279;-72
2022/12/10 11:21:18;;;;;;;;;;;;;;;6.36;52.67;99996.41;4787208;29;6997;-72
2022/12/10 11:24:11;;;;;;;;;;;;;;;6.36;52.66;99999.88;4789671;29;7231;-72
2022/12/10 11:26:43;;;;;;;;;;;;;;;6.36;52.17;100004.06;4789623;29;6838;-72
2022/12/10 11:29:23;;;;;;;;;;;;;;;6.35;52.30;100000.66;4801593;29;6845;-72
2022/12/10 11:32:20;;;;;;;;;;;;;;;6.30;52.33;100004.59;4798875;29;7107;-72
2022/12/10 11:35:10;;;;;;;;;;;;;;;6.24;52.45;99997.47;4786983;29;8559;-72
2022/12/10 11:38:20;;;;;;;;;;;;;;;6.25;52.94;100003.44;4805438;29;7240;-72
2022/12/10 11:41:19;;;;;;;;;;;;;;;6.30;52.76;99993.53;4792316;29;7424;-72
2022/12/10 11:44:12;;;;;;;;;;;;;;;6.33;52.56;99993.72;4800575;29;6796;-72
2022/12/10 11:47:26;;;;;;;;;;;;;;;6.37;52.81;99995.63;4787573;29;6805;-72
2022/12/10 11:50:35;;;;;;;;;;;;;;;6.41;52.38;99991.59;4796669;29;7165;-72
2022/12/10 11:53:37;;;;;;;;;;;;;;;6.42;52.61;99986.59;4806645;29;7025;-72
2022/12/10 11:56:17;;;;;;;;;;;;;;;6.39;52.35;99984.75;4794096;29;6813;-72
2022/12/10 11:58:49;;;;;;;;;;;;;;;6.34;51.93;99987.81;4803622;29;7013;-72
2022/12/10 12:01:51;;;;;;;;;;;;;;;6.30;52.60;99991.00;4805449;29;7035;-72
2022/12/10 12:05:09;;;;;;;;;;;;;;;6.22;52.47;99993.97;4799539;29;7250;-72
2022/12/10 12:07:56;;;;;;;;;;;;;;;6.21;52.76;99984.56;4801455;29;7014;-72
2022/12/10 12:10:46;;;;;;;;;;;;;;;6.29;52.66;99989.25;4801683;29;6825;-72
2022/12/10 12:13:20;;;;;;;;;;;;;;;6.25;52.07;99989.03;4799500;29;6943;-72
2022/12/10 12:15:59;;;;;;;;;;;;;;;6.24;52.46;99986.44;4789609;29;6821;-72
2022/12/10 12:19:16;;;;;;;;;;;;;;;6.25;52.40;99985.63;4776885;29;7000;-72
2022/12/10 12:21:47;;;;;;;;;;;;;;;6.27;52.90;99990.78;4804840;29;7388;-72
2022/12/10 12:24:28;;;;;;;;;;;;;;;6.29;52.89;99987.56;4791933;29;6817;-72
2022/12/10 12:27:14;;;;;;;;;;;;;;;6.31;52.49;99987.66;4802393;29;6943;-72
2022/12/10 12:30:15;;;;;;;;;;;;;;;6.31;52.63;99985.09;4795249;29;6876;-72
2022/12/10 12:32:48;;;;;;;;;;;;;;;6.34;52.31;99990.38;4804304;29;11549;-72
2022/12/10 12:35:19;;;;;;;;;;;;;;;6.38;52.32;99984.69;4808206;29;6801;-72
2022/12/10 12:37:59;;;;;;;;;;;;;;;6.42;52.70;99995.91;4794478;29;6833;-72
2022/12/10 12:40:39;;;;;;;;;;;;;;;6.44;52.11;99985.03;4790763;29;6809;-72
2022/12/10 12:43:19;;;;;;;;;;;;;;;6.40;52.16;99988.19;4786129;29;6994;-72
2022/12/10 12:45:55;;;;;;;;;;;;;;;6.32;52.27;99990.28;4790761;29;6829;-72
2022/12/10 12:48:49;;;;;;;;;;;;;;;6.29;52.64;99995.19;4790174;29;7680;-72
2022/12/10 12:51:33;;;;;;;;;;;;;;;6.31;52.80;99995.28;4797555;29;6985;-72
2022/12/10 12:53:58;;;;;;;;;;;;;;;6.35;52.63;99998.09;4791658;29;6822;-72
2022/12/10 12:56:58;;;;;;;;;;;;;;;6.38;52.60;99995.72;4763501;29;7970;-72
2022/12/10 12:59:57;;;;;;;;;;;;;;;6.36;52.28;99991.34;4771844;29;8605;-72
2022/12/10 13:02:53;;;;;;;;;;;;;;;6.34;52.43;99996.34;4780921;29;8550;-72
2022/12/10 13:05:32;;;;;;;;;;;;;;;6.34;52.21;99995.47;4793982;29;6813;-72
2022/12/10 13:08:20;;;;;;;;;;;;;;;6.32;52.28;100005.53;4785266;29;6942;-72
2022/12/10 13:11:11;;;;;;;;;;;;;;;6.30;52.32;100003.72;4791556;29;8518;-72
2022/12/10 13:14:02;;;;;;;;;;;;;;;6.27;52.75;99998.44;4800448;29;6869;-72
2022/12/10 13:16:49;;;;;;;;;;;;;;;6.25;52.78;100001.75;4790243;29;7328;-72
2022/12/10 13:19:20;;;;;;;;;;;;;;;6.24;52.51;99997.47;4772059;29;7074;-72
2022/12/10 13:22:31;;;;;;;;;;;;;;;6.20;52.57;100003.19;4802631;29;6809;-72
2022/12/10 13:25:14;;;;;;;;;;;;;;;6.15;52.47;100002.00;4803588;29;8622;-72
2022/12/10 13:27:53;;;;;;;;;;;;;;;6.13;52.57;100003.59;4780268;29;6825;-72
2022/12/10 13:30:37;;;;;;;;;;;;;;;6.10;52.52;100011.06;4800684;29;6833;-72
2022/12/10 13:33:21;;;;;;;;;;;;;;;6.06;52.62;100004.91;4782135;29;6821;-72
2022/12/10 13:36:00;;;;;;;;;;;;;;;6.02;52.52;100007.16;4781106;29;6801;-72
2022/12/10 13:38:28;;;;;;;;;;;;;;;5.98;53.02;100009.47;4785450;29;6853;-72
2022/12/10 13:47:24;;;;;;;;;;;;;;;5.90;52.70;100017.44;4783869;29;6793;-72
2022/12/10 13:50:06;;;;;;;;;;;;;;;5.83;52.67;100022.16;4791267;29;7323;-72
2022/12/10 13:52:40;;;;;;;;;;;;;;;5.81;52.74;100025.41;4792693;29;6805;-72
2022/12/10 13:55:25;;;;;;;;;;;;;;;5.79;52.85;100020.22;4802491;29;6805;-72
2022/12/10 13:58:35;;;;;;;;;;;;;;;5.81;53.17;100027.94;4790696;29;6829;-72
2022/12/10 14:01:33;;;;;;;;;;;;;;;5.82;52.67;100024.63;4747490;29;6805;-72
2022/12/10 14:04:23;;;;;;;;;;;;;;;5.84;52.90;100023.03;4788872;29;6934;-72
2022/12/10 14:06:52;;;;;;;;;;;;;;;5.84;53.00;100028.13;4783419;29;7024;-72
2022/12/10 14:09:26;;;;;;;;;;;;;;;5.85;52.87;100040.06;4787761;29;7224;-72
2022/12/10 14:12:14;;;;;;;;;;;;;;;5.84;53.39;100028.13;4791384;29;6817;-72
2022/12/10 14:14:47;;;;;;;;;;;;;;;5.85;53.16;100024.78;4796664;29;6808;-72
2022/12/10 14:17:23;;;;;;;;;;;;;;;5.86;53.27;100025.69;4782878;29;8744;-72
2022/12/10 14:19:54;;;;;;;;;;;;;;;5.87;53.34;100035.06;4788921;29;6882;-72
2022/12/10 14:22:35;;;;;;;;;;;;;;;5.87;53.34;100033.38;4787163;29;7250;-72
2022/12/10 14:25:11;;;;;;;;;;;;;;;5.88;53.08;100037.69;4778178;29;8446;-72
2022/12/10 14:27:37;;;;;;;;;;;;;;;5.89;53.12;100025.88;4786883;29;6904;-72
2022/12/10 14:30:26;;;;;;;;;;;;;;;5.88;53.02;100035.16;4796251;29;6824;-72
2022/12/10 14:32:58;;;;;;;;;;;;;;;5.87;53.29;100032.53;4767730;29;13122;-72
2022/12/10 14:35:27;;;;;;;;;;;;;;;5.86;53.40;100031.63;4795131;29;6813;-72
2022/12/10 14:37:58;;;;;;;;;;;;;;;5.86;53.81;100041.81;4781794;29;7039;-72
2022/12/10 14:40:38;;;;;;;;;;;;;;;5.86;53.37;100043.50;4794873;29;7200;-72
2022/12/10 14:43:13;;;;;;;;;;;;;;;5.86;53.52;100041.81;4789280;29;9624;-72
2022/12/10 14:45:55;;;;;;;;;;;;;;;5.87;53.37;100038.47;4780625;29;6805;-72
2022/12/10 14:48:23;;;;;;;;;;;;;;;5.82;53.31;100042.41;4788296;29;8546;-72
2022/12/10 14:50:49;;;;;;;;;;;;;;;5.77;53.57;100044.69;4791433;29;7313;-72
2022/12/10 14:53:25;;;;;;;;;;;;;;;5.76;53.28;100054.75;4788023;29;7284;-72
2022/12/10 14:55:59;;;;;;;;;;;;;;;5.73;53.14;100052.88;4785114;29;8059;-72
2022/12/10 14:58:52;;;;;;;;;;;;;;;5.72;53.34;100053.69;4768429;29;7252;-72
2022/12/10 15:01:47;;;;;;;;;;;;;;;5.66;53.38;100048.22;4784284;29;6825;-72
2022/12/10 15:04:17;;;;;;;;;;;;;;;5.63;53.40;100061.63;4797279;29;7134;-72
2022/12/10 15:06:44;;;;;;;;;;;;;;;5.62;53.45;100061.53;4784158;29;6856;-72
2022/12/10 15:09:21;;;;;;;;;;;;;;;5.59;53.65;100062.19;4773565;29;8031;-72
2022/12/10 15:11:59;;;;;;;;;;;;;;;5.57;53.26;100058.69;4775603;29;7401;-72
2022/12/10 15:14:29;;;;;;;;;;;;;;;5.55;53.34;100060.25;4800307;29;6817;-71
2022/12/10 15:16:57;;;;;;;;;;;;;;;5.50;53.52;100064.16;4764571;29;6992;-72
2022/12/10 15:19:33;;;;;;;;;;;;;;;5.46;53.36;100059.69;4784289;29;7068;-72
2022/12/10 15:22:16;;;;;;;;;;;;;;;5.41;53.20;100065.38;4797654;29;6801;-72
2022/12/10 15:24:42;;;;;;;;;;;;;;;5.39;53.42;100064.38;4791731;29;6846;-72
2022/12/10 15:27:25;;;;;;;;;;;;;;;5.35;53.51;100064.06;4786688;29;7871;-72
2022/12/10 15:29:52;;;;;;;;;;;;;;;5.31;53.89;100068.13;4759035;29;8519;-72
2022/12/10 15:32:28;;;;;;;;;;;;;;;5.31;53.78;100075.72;4795932;29;8152;-72
2022/12/10 15:34:59;;;;;;;;;;;;;;;5.27;53.78;100068.69;4799198;29;7439;-72
2022/12/10 15:37:35;;;;;;;;;;;;;;;5.26;53.87;100070.34;4769419;29;6974;-72
2022/12/10 15:40:07;;;;;;;;;;;;;;;5.27;53.95;100079.75;4781326;29;7243;-72
2022/12/10 15:42:40;;;;;;;;;;;;;;;5.28;53.89;100078.94;4769668;29;8068;-72
2022/12/10 15:45:41;;;;;;;;;;;;;;;5.29;54.13;100074.72;4778587;29;7066;-72
2022/12/10 15:48:11;;;;;;;;;;;;;;;5.30;53.92;100079.03;4777853;29;6805;-72
2022/12/10 15:50:38;;;;;;;;;;;;;;;5.30;54.14;100073.09;4784106;29;7336;-72
2022/12/10 15:53:04;;;;;;;;;;;;;;;5.31;54.36;100074.84;4786009;29;6797;-72
2022/12/10 15:55:30;;;;;;;;;;;;;;;5.31;54.44;100079.94;4768155;29;6975;-72
2022/12/10 15:57:55;;;;;;;;;;;;;;;5.32;54.36;100072.41;4783408;29;7133;-72
2022/12/10 16:00:26;;;;;;;;;;;;;;;5.32;54.63;100068.97;4769640;29;6791;-72
2022/12/10 16:03:05;;;;;;;;;;;;;;;5.30;54.48;100068.88;4782113;29;6785;-72
2022/12/10 16:05:36;;;;;;;;;;;;;;;5.30;54.10;100068.88;4781296;29;6809;-72
2022/12/10 16:08:21;;;;;;;;;;;;;;;5.30;53.94;100073.09;4789770;29;6790;-72
2022/12/10 16:10:51;;;;;;;;;;;;;;;5.28;54.01;100071.31;4793463;29;6829;-72
2022/12/10 16:13:21;;;;;;;;;;;;;;;5.28;54.04;100075.53;4778378;29;6953;-72
2022/12/10 16:15:57;;;;;;;;;;;;;;;5.28;54.18;100075.53;4785431;29;6798;-72
2022/12/10 16:18:24;;;;;;;;;;;;;;;5.27;54.13;100081.38;4779132;29;6817;-72
2022/12/10 16:20:49;;;;;;;;;;;;;;;5.27;54.08;100081.38;4787022;29;6872;-72
2022/12/10 16:23:15;;;;;;;;;;;;;;;5.27;54.21;100089.91;4796112;29;6793;-72
2022/12/10 16:25:44;;;;;;;;;;;;;;;5.28;54.06;100084.03;4787142;29;6792;-72
2022/12/10 16:28:28;;;;;;;;;;;;;;;5.29;54.19;100095.06;4790656;29;6809;-72
2022/12/10 16:30:58;;;;;;;;;;;;;;;5.26;53.98;100084.72;4788620;29;7241;-72
2022/12/10 16:33:26;;;;;;;;;;;;;;;5.25;54.29;100086.34;4782726;29;6797;-72
2022/12/10 16:35:56;;;;;;;;;;;;;;;5.25;54.10;100080.41;4791848;29;6798;-72
2022/12/10 16:38:24;;;;;;;;;;;;;;;5.24;54.72;100073.56;4779009;29;7476;-72
2022/12/10 16:40:49;;;;;;;;;;;;;;;5.24;54.29;100073.56;4795533;29;6856;-72
2022/12/10 16:43:22;;;;;;;;;;;;;;;5.23;54.35;100071.81;4790265;29;6765;-72
2022/12/10 16:45:49;;;;;;;;;;;;;;;5.24;54.18;100078.66;4788625;29;6790;-72
2022/12/10 16:48:16;;;;;;;;;;;;;;;5.26;54.91;100072.91;4792125;29;6817;-72
2022/12/10 16:50:43;;;;;;;;;;;;;;;5.28;54.15;100080.59;4792718;29;6849;-72
2022/12/10 16:53:20;;;;;;;;;;;;;;;5.25;54.59;100081.28;4787133;29;6790;-72
2022/12/10 16:55:46;;;;;;;;;;;;;;;5.23;54.24;100084.53;4802119;29;7015;-73
2022/12/10 16:58:16;;;;;;;;;;;;;;;5.20;54.74;100081.75;4789650;29;9877;-72
2022/12/10 17:00:46;;;;;;;;;;;;;;;5.17;54.76;100086.66;4781199;29;6797;-72
2022/12/10 17:03:21;;;;;;;;;;;;;;;5.17;54.92;100086.66;4785871;29;6857;-72
2022/12/10 17:05:57;;;;;;;;;;;;;;;5.15;54.63;100089.09;4800704;29;6805;-72
2022/12/10 17:08:24;;;;;;;;;;;;;;;5.09;54.33;100097.19;4806196;29;6966;-71
2022/12/10 17:13:38;;;;;;;;;;;;;;;4.96;54.74;100097.19;4794473;29;6809;-72
2022/12/10 17:16:04;;;;;;;;;;;;;;;4.93;54.72;100091.91;4793222;29;6789;-72
2022/12/10 17:18:33;;;;;;;;;;;;;;;4.90;55.33;100084.06;4803762;29;6793;-72
2022/12/10 17:20:58;;;;;;;;;;;;;;;4.86;54.92;100091.50;4786163;29;6794;-72
2022/12/10 17:23:24;;;;;;;;;;;;;;;4.85;55.70;100086.31;4805731;29;7192;-72
2022/12/10 17:25:50;;;;;;;;;;;;;;;4.89;55.07;100088.28;4803642;29;6972;-72
2022/12/10 17:28:20;;;;;;;;;;;;;;;4.93;54.77;100091.91;4788100;29;6883;-72
2022/12/10 17:30:47;;;;;;;;;;;;;;;4.96;55.14;100097.19;4785202;29;6809;-72
2022/12/10 17:33:22;;;;;;;;;;;;;;;5.00;55.68;100088.97;4804060;29;6786;-72
2022/12/10 17:35:52;;;;;;;;;;;;;;;5.02;55.47;100092.50;4793746;29;7830;-72
2022/12/10 17:38:25;;;;;;;;;;;;;;;5.05;55.37;100092.72;4794995;29;7239;-72
2022/12/10 17:40:53;;;;;;;;;;;;;;;5.09;55.85;100088.72;4786373;29;6805;-72
2022/12/10 17:43:19;;;;;;;;;;;;;;;5.10;55.77;100093.00;4785516;29;6801;-72
2022/12/10 17:45:45;;;;;;;;;;;;;;;5.10;55.44;100096.41;4802325;29;7017;-71
2022/12/10 17:48:17;;;;;;;;;;;;;;;5.10;55.67;100098.94;4805611;29;6801;-71
2022/12/10 17:50:45;;;;;;;;;;;;;;;5.13;55.33;100106.81;4791362;29;6812;-72
2022/12/10 17:53:17;;;;;;;;;;;;;;;5.17;55.55;100106.97;4790816;29;7282;-72
2022/12/10 17:55:53;;;;;;;;;;;;;;;5.25;55.85;100121.06;4771311;29;7098;-72
2022/12/10 17:58:20;;;;;;;;;;;;;;;5.29;55.20;100115.41;4789295;29;6813;-72
2022/12/10 18:00:47;;;;;;;;;;;;;;;5.32;55.67;100118.16;4798464;29;6805;-72
2022/12/10 18:03:13;;;;;;;;;;;;;;;5.35;55.52;100113.25;4789451;29;7333;-73
2022/12/10 18:05:40;;;;;;;;;;;;;;;5.36;55.26;100116.66;4782368;29;8078;-72
2022/12/10 18:08:05;;;;;;;;;;;;;;;5.38;55.42;100113.44;4801954;29;7086;-72
2022/12/10 18:10:33;;;;;;;;;;;;;;;5.41;55.15;100115.31;4790916;29;8123;-72
2022/12/10 18:13:00;;;;;;;;;;;;;;;5.42;55.21;100115.41;4785644;29;6942;-72
2022/12/10 18:15:28;;;;;;;;;;;;;;;5.44;54.97;100112.09;4782512;29;6789;-72
2022/12/10 18:17:55;;;;;;;;;;;;;;;5.46;55.56;100113.06;4766918;29;7196;-72
2022/12/10 18:20:33;;;;;;;;;;;;;;;5.48;55.32;100108.94;4786768;29;7186;-72
2022/12/10 18:23:01;;;;;;;;;;;;;;;5.49;55.00;100113.25;4784501;29;6951;-72
2022/12/10 18:25:28;;;;;;;;;;;;;;;5.49;55.48;100109.06;4786382;29;6990;-72
2022/12/10 18:28:06;;;;;;;;;;;;;;;5.50;55.46;100110.81;4791532;29;6884;-72
2022/12/10 18:30:32;;;;;;;;;;;;;;;5.50;55.40;100112.47;4790126;29;6817;-72
2022/12/10 18:32:58;;;;;;;;;;;;;;;5.51;55.45;100116.78;4759069;29;7429;-72
2022/12/10 18:35:23;;;;;;;;;;;;;;;5.53;55.76;100112.69;4791024;29;6814;-72
2022/12/10 18:37:49;;;;;;;;;;;;;;;5.57;55.63;100117.16;4805924;29;6960;-72
2022/12/10 18:40:20;;;;;;;;;;;;;;;5.58;55.59;100118.91;4799087;29;6989;-72
2022/12/10 18:42:49;;;;;;;;;;;;;;;5.61;55.55;100114.06;4782840;29;6950;-72
2022/12/10 18:45:15;;;;;;;;;;;;;;;5.63;55.74;100109.03;4789502;29;7021;-72
2022/12/10 18:47:41;;;;;;;;;;;;;;;5.65;55.60;100113.44;4793189;29;6813;-73
2022/12/10 18:50:33;;;;;;;;;;;;;;;5.65;55.41;100118.53;4786731;29;8721;-73
2022/12/10 18:52:58;;;;;;;;;;;;;;;5.66;55.57;100119.44;4795539;29;6802;-72
2022/12/10 18:55:24;;;;;;;;;;;;;;;5.63;55.31;100119.22;4783410;29;7044;-73